Aeroporto :
LOGIN :

Iscrizione | Disclaimer

   EN    FR    IT 

 










Sommario :    VFR   VFR Marginale   IFR   IFR Intensivo   IFR Molto Intensivo
Visibilità : 
Base nubi : 
>= 8 km
>= 3000ft
5 / 8 km
1000 / 3000 ft
1500m / 5 km
500 / 1000 ft
800 / 1500m
200 / 500 ft
< 800m
< 200 ft
Simboli :   Temporali  Nebbia  Neve Forte  Precipitazioni Forti  Vento > 20 kt
SIGMETs :   Varie  Temporali  Ghiacco  Turbolenza  Onda orograficha  Ceneri Vulcaniche







- Altitudine del aeroporto : 15 ft
- Codice IATA : BHD
- Carte del aeroporto


EGAC - George Best Belfast City

ULTIMO METAR :
  • 210650Z AUTO 19007KT 9999 FEW013/// 14/12 Q1020

METARs OBSOLETI :
  • 210620Z AUTO 20009KT 9999 NCD 13/11 Q1020
  • 210550Z AUTO 20010KT 9999 NCD 13/11 Q1020
  • 210520Z AUTO 20010KT 9999 NCD 13/12 Q1020
  • 210450Z AUTO 21009KT 9999 SCT022/// BKN026/// 13/12 Q1021
  • 210420Z AUTO 21008KT 9999 OVC022/// 14/12 Q1021

TAF TAF EGAC
Valido dal 21 a 06 ore il 21 a 15 ore UTC


210543Z 2106/2115 20010KT 9999 FEW012 SCT025
PROB30
TEMPO 2106/2108 BKN012
BECMG 2109/2112 20018G28KT
TEMPO 2112/2115 7000 RA BKN014
PROB30
TEMPO 2112/2115 4000 +RA RADZ
ATIS : +44 02890 935 124
Nessun NOTAM noto per questo aeroporto.



MetMap, La meteo Aeronautica in un colpo d'occhio ! - Copyright ORBIFLY Dicembre 2007 - Disclaimer

ORBIFLY MET'MAP TEAM :

Programmazione e sviluppo : Alexandra Zaïnal
Concezione e sviluppo : Baudouin d'Aumeries
Co-Programmazione e sviluppo : Marc-Olivier Méhu
Supporto tecnico e logistico : Manuel Goepfert
Aiuto per la traduzione : Arnaldo La Scala

Contatto : metmap@orbifly.com




FONTI E CREDITI :

   NOAA